Архив погоды в Городовиковске

Метеограмма Городовиковск
Пятница, 20 Апреля
Время местн. Темп Ветер Видим Явления Облачность нижн/средн/верх Атм. давл. Влжн Точка росы ВНГО R Сост. почвы Tg s
Напр Скр Прв ур.ст ур.м изм
12:00 +10.9° З 4 - 20 км ливневый дождь облачно 745 753 +0.5 80% +7.5° 1 км - - - -
09:00 +9.4° З 4 - 10 км слабый ливневый дождь облачно 745 753 +0.3 88% +7.5° 600 м - - - -
06:00 +8.6° З 4 10 20 км ливневый дождь облачно 745 752 -1.1 90% +7.1° 1 км 2 Влажная (без луж) +8° -
03:00 +9.7° З 4 - 20 км небо без изменений {ливневые осадки} облачно 746 753 -0.6 86% +7.4° 1 км - - - -
00:00 +9.8° З 4 - 10 км слабый ливневый дождь облачно 746 754 -1.1 88% +7.9° 600 м - - - -
Четверг, 19 Апреля
Время местн. Темп Ветер Видим Явления Облачность нижн/средн/верх Атм. давл. Влжн Точка росы ВНГО R Сост. почвы Tg s
Напр Скр Прв ур.ст ур.м изм
21:00 +10.3° Ю-З 5 - 20 км облака рассеиваются {ливневые осадки} переменная облачность 747 755 -0.8 84% +7.7° более 2.5 км - - - -
18:00 +10.8° Ю-З 5 - 20 км ливневый дождь облачно 748 756 -0.6 83% +8° 1 км - - - -
15:00 +14.3° Ю-З 6 14 10 км слабый ливневый дождь облачно 749 756 -1.3 61% +7° 600 м - - - -
12:00 +19° З 6 14 20 км - преимущественно облачно 750 758 -1.7 37% +3.9° 1 км - - - -
09:00 +14.1° З 4 - 20 км - облачно 752 759 -0.4 73% +9.4° более 2.5 км - - - -
06:00 +10.7° З,Ю-З 3 - 20 км - облачно 752 760 -1.1 69% +5.3° 1 км - Сухая (без трещин) - -
03:00 +13.3° З,Ю-З 3 - 20 км - переменная облачность 753 761 -1.8 62% +6.1° более 2.5 км - - - -
00:00 +14° З 1 - 20 км - переменная облачность 755 763 -1.1 64% +7.2° более 2.5 км - - - -
Среда, 18 Апреля
Время местн. Темп Ветер Видим Явления Облачность нижн/средн/верх Атм. давл. Влжн Точка росы ВНГО R Сост. почвы Tg s
Напр Скр Прв ур.ст ур.м изм
21:00 +16.2° З 1 - 20 км - облачно 756 764 -0.4 56% +7.4° 1 км - - - -
18:00 +19.8° З,Ю-З 2 - 20 км - облачно 756 764 -0.8 45% +7.4° 1 км 0 - - -
15:00 +22.6° З,Ю-З 3 - 20 км - облачно 757 765 -1.4 34% +6.1° 1 км - - - -
12:00 +21° Ю-З 3 - 20 км - облачно 759 766 -0.8 36% +5.4° более 2.5 км - - - -
09:00 +14.9° Ю-З 2 - 20 км - облачно 759 767 +0.5 43% +2.6° 1 км - - - -
06:00 +7° Ю 1 - 20 км - облачно 759 767 0 67% +1.3° 1 км 0 Сухая (без трещин) +4° -
03:00 +9.9° Ю 2 - 20 км - ясно 759 767 0 52% +0.6° более 2.5 км - - - -
00:00 +12.4° Ю 1 - 20 км - ясно 759 767 +0.3 45% +0.7° более 2.5 км - - - -
Вторник, 17 Апреля
Время местн. Темп Ветер Видим Явления Облачность нижн/средн/верх Атм. давл. Влжн Точка росы ВНГО R Сост. почвы Tg s
Напр Скр Прв ур.ст ур.м изм
21:00 +12.8° Ю,Ю-В 1 - 20 км - ясно 759 766 +0.1 44% +1° более 2.5 км - - - -
18:00 +18.3° Ю 1 - 20 км - облачно с прояснениями 758 766 -0.5 32% +1.5° 1 км - - - -
15:00 +19.3° З 1 - 20 км - облачно 759 767 -0.5 26% -0.4° более 2.5 км - - - -
12:00 +18.7° Ю 2 - 20 км - облачно 759 767 -0.5 25% -1.8° - - - - -
09:00 +15.6° З 1 - 20 км - облачно 760 768 +0.3 33% -0.7° более 2.5 км - - - -